createdAt,value
2023-08-12T00:02:40.454Z,100623.22
2023-08-12T00:07:42.712Z,100624.47
2023-08-12T00:12:44.544Z,100624.31
2023-08-12T00:17:46.226Z,100618.44
2023-08-12T00:22:47.869Z,100616.97
2023-08-12T00:27:49.465Z,100622.72
2023-08-12T00:32:51.561Z,100619.13
2023-08-12T00:37:53.311Z,100617.69
2023-08-12T00:42:54.933Z,100611.00
2023-08-12T00:47:56.721Z,100607.38
2023-08-12T00:52:59.655Z,100598.16
2023-08-12T00:58:01.671Z,100604.63
2023-08-12T01:03:04.314Z,100610.41
2023-08-12T01:08:06.107Z,100599.53
2023-08-12T01:13:21.002Z,100598.31
2023-08-12T01:18:25.156Z,100605.53
2023-08-12T01:23:26.986Z,100605.38
2023-08-12T01:28:28.607Z,100602.22
2023-08-12T01:33:43.767Z,100591.22
2023-08-12T01:38:45.712Z,100592.28
2023-08-12T01:43:47.562Z,100584.38
2023-08-12T01:48:49.326Z,100582.28
2023-08-12T01:53:52.809Z,100576.50
2023-08-12T01:58:54.572Z,100571.06
2023-08-12T02:03:56.292Z,100572.94
2023-08-12T02:08:58.020Z,100566.47
2023-08-12T02:13:59.693Z,100563.34
2023-08-12T02:19:01.313Z,100554.66
2023-08-12T02:24:02.941Z,100552.59
2023-08-12T02:29:04.983Z,100538.00
2023-08-12T02:34:06.699Z,100534.47
2023-08-12T02:39:08.348Z,100526.25
2023-08-12T02:44:09.973Z,100527.06
2023-08-12T02:49:11.672Z,100524.56
2023-08-12T02:54:13.307Z,100527.88
2023-08-12T02:59:15.020Z,100525.19
2023-08-12T03:04:16.713Z,100527.88
2023-08-12T03:09:19.497Z,100523.97
2023-08-12T03:14:21.192Z,100528.81
2023-08-12T03:19:22.935Z,100533.91
2023-08-12T03:24:24.614Z,100528.38
2023-08-12T03:29:26.364Z,100525.41
2023-08-12T03:34:30.782Z,100523.53
2023-08-12T03:39:34.188Z,100519.31
2023-08-12T03:44:36.983Z,100521.41
2023-08-12T03:49:39.191Z,100511.84
2023-08-12T03:54:40.986Z,100513.06
2023-08-12T03:59:42.813Z,100507.59
2023-08-12T04:04:45.107Z,100508.09
2023-08-12T04:09:46.892Z,100509.00
2023-08-12T04:14:49.494Z,100502.28
2023-08-12T04:19:51.219Z,100503.47
2023-08-12T04:24:52.979Z,100501.78
2023-08-12T04:29:55.881Z,100502.47
2023-08-12T04:34:57.845Z,100503.31
2023-08-12T04:40:00.672Z,100507.16
2023-08-12T04:45:04.406Z,100504.75
2023-08-12T04:50:08.075Z,100499.13
2023-08-12T04:55:11.797Z,100500.16
2023-08-12T05:00:13.996Z,100492.69
2023-08-12T05:05:16.126Z,100493.56
2023-08-12T05:10:18.305Z,100496.50
2023-08-12T05:15:20.231Z,100498.00
2023-08-12T05:20:23.156Z,100500.75
2023-08-12T05:25:25.077Z,100493.34
2023-08-12T05:30:26.773Z,100491.31
2023-08-12T05:35:28.415Z,100491.16
2023-08-12T05:40:30.688Z,100484.28
2023-08-12T05:45:32.367Z,100485.97
2023-08-12T05:50:33.985Z,100490.53
2023-08-12T05:55:38.400Z,100487.97
2023-08-12T06:00:40.023Z,100486.28
2023-08-12T06:05:42.405Z,100484.81
2023-08-12T06:10:44.196Z,100478.47
2023-08-12T06:15:45.853Z,100472.81
2023-08-12T06:20:47.510Z,100472.66
2023-08-12T06:25:49.424Z,100469.13
2023-08-12T06:30:51.103Z,100468.28
2023-08-12T06:35:52.727Z,100460.09
2023-08-12T06:40:54.362Z,100463.38
2023-08-12T06:45:55.988Z,100472.50
2023-08-12T06:50:57.886Z,100470.81
2023-08-12T06:55:59.518Z,100461.59
2023-08-12T07:01:01.248Z,100453.81
2023-08-12T07:06:02.935Z,100454.16
2023-08-12T07:11:05.774Z,100453.78
2023-08-12T07:16:07.491Z,100457.84
2023-08-12T07:21:09.257Z,100451.94
2023-08-12T07:26:10.904Z,100449.75
2023-08-12T07:31:12.627Z,100457.25
2023-08-12T07:36:14.653Z,100448.50
2023-08-12T07:41:16.273Z,100450.19
2023-08-12T07:46:18.045Z,100444.56
2023-08-12T07:51:19.784Z,100433.78
2023-08-12T07:56:21.451Z,100441.88
2023-08-12T08:01:23.098Z,100444.19
2023-08-12T08:06:25.025Z,100427.06
2023-08-12T08:11:26.706Z,100432.69
2023-08-12T08:16:28.978Z,100419.81
2023-08-12T08:21:30.767Z,100411.19
2023-08-12T08:26:32.420Z,100408.19
2023-08-12T08:31:34.054Z,100411.78
2023-08-12T08:36:35.675Z,100420.97
2023-08-12T08:41:39.934Z,100419.47
2023-08-12T08:46:42.753Z,100416.56
2023-08-12T08:51:44.936Z,100410.06
2023-08-12T08:56:49.384Z,100412.06
2023-08-12T09:01:58.167Z,100405.44
2023-08-12T09:07:01.647Z,100405.38
2023-08-12T09:12:04.207Z,100402.31
2023-08-12T09:17:05.833Z,100383.75
2023-08-12T09:22:10.661Z,100386.25
2023-08-12T09:27:12.664Z,100382.06
2023-08-12T09:32:19.098Z,100369.25
2023-08-12T09:37:25.296Z,100372.97
2023-08-12T09:42:27.084Z,100359.81
2023-08-12T09:47:28.823Z,100355.94
2023-08-12T09:52:30.541Z,100360.44
2023-08-12T09:57:34.281Z,100351.75
2023-08-12T10:02:36.043Z,100357.53
2023-08-12T10:07:37.781Z,100355.19
2023-08-12T10:12:39.990Z,100351.72
2023-08-12T10:17:44.030Z,100348.75
2023-08-12T10:22:46.579Z,100335.91
2023-08-12T10:27:48.397Z,100334.97
2023-08-12T10:32:50.524Z,100340.25
2023-08-12T10:37:52.390Z,100333.94
2023-08-12T10:42:54.304Z,100340.97
2023-08-12T10:48:19.182Z,100331.53
2023-08-12T10:53:31.040Z,100328.00
2023-08-12T10:58:44.866Z,100318.88
2023-08-12T11:03:49.913Z,100317.56
2023-08-12T11:08:54.889Z,100312.94
2023-08-12T11:14:00.487Z,100316.59
2023-08-12T11:19:02.449Z,100314.50
2023-08-12T11:24:04.910Z,100315.03
2023-08-12T11:29:12.135Z,100308.31
2023-08-12T11:34:13.888Z,100312.03
2023-08-12T11:39:16.387Z,100305.13
2023-08-12T11:44:18.381Z,100299.91
2023-08-12T11:49:20.022Z,100300.28
2023-08-12T11:54:21.747Z,100292.47
2023-08-12T11:59:23.738Z,100292.34
2023-08-12T12:04:25.491Z,100282.25
2023-08-12T12:09:27.355Z,100289.31
2023-08-12T12:14:29.594Z,100285.13
2023-08-12T12:19:31.816Z,100282.13
2023-08-12T12:24:45.046Z,100282.56
2023-08-12T12:29:48.544Z,100283.53
2023-08-12T12:34:51.003Z,100281.72
2023-08-12T12:39:52.853Z,100276.38
2023-08-12T12:44:54.561Z,100276.06
2023-08-12T12:49:56.265Z,100267.16
2023-08-12T12:54:58.703Z,100265.59
2023-08-12T13:00:00.869Z,100258.13
2023-08-12T13:05:03.034Z,100251.50
2023-08-12T13:10:05.209Z,100241.88
2023-08-12T13:15:08.158Z,100240.28
2023-08-12T13:20:10.844Z,100232.31
2023-08-12T13:25:13.381Z,100219.53
2023-08-12T13:30:15.680Z,100211.09
2023-08-12T13:35:18.516Z,100217.31
2023-08-12T13:40:20.228Z,100212.34
2023-08-12T13:45:22.480Z,100204.91
2023-08-12T13:50:24.363Z,100203.97
2023-08-12T13:55:26.808Z,100200.78
2023-08-12T14:00:28.681Z,100203.59
2023-08-12T14:05:30.576Z,100202.69
2023-08-12T14:10:32.266Z,100200.78
2023-08-12T14:15:33.911Z,100199.81
2023-08-12T14:20:35.544Z,100186.03
2023-08-12T14:25:37.173Z,100186.19
2023-08-12T14:30:39.945Z,100182.66
2023-08-12T14:35:41.822Z,100179.63
2023-08-12T14:40:43.602Z,100168.44
2023-08-12T14:45:48.181Z,100153.22
2023-08-12T14:50:49.840Z,100151.03
2023-08-12T14:55:51.533Z,100141.72
2023-08-12T15:00:53.258Z,100123.13
2023-08-12T15:06:02.323Z,100117.72
2023-08-12T15:11:04.298Z,100118.66
2023-08-12T15:16:06.385Z,100117.97
2023-08-12T15:21:08.058Z,100119.97
2023-08-12T15:26:09.836Z,100122.19
2023-08-12T15:31:15.892Z,100113.56
2023-08-12T15:36:17.577Z,100116.22
2023-08-12T15:41:19.288Z,100109.63
2023-08-12T15:46:20.949Z,100109.84
2023-08-12T15:51:22.673Z,100100.22
2023-08-12T15:56:24.593Z,100084.78
2023-08-12T16:01:26.336Z,100093.28
2023-08-12T16:06:29.537Z,100090.84
2023-08-12T16:11:31.371Z,100085.31
2023-08-12T16:16:33.429Z,100092.22
2023-08-12T16:21:35.051Z,100104.19
2023-08-12T16:26:36.758Z,100102.03
2023-08-12T16:31:40.504Z,100098.44
2023-08-12T16:36:42.846Z,100096.75
2023-08-12T16:41:44.525Z,100107.84
2023-08-12T16:46:46.244Z,100120.25
2023-08-12T16:51:47.987Z,100123.25
2023-08-12T16:56:49.626Z,100219.13
2023-08-12T17:01:51.352Z,100250.66
2023-08-12T17:06:55.990Z,100259.81
2023-08-12T17:11:57.613Z,100267.53
2023-08-12T17:16:59.286Z,100278.19
2023-08-12T17:22:00.996Z,100283.16
2023-08-12T17:27:02.742Z,100282.78
2023-08-12T17:32:04.551Z,100279.94
2023-08-12T17:37:06.155Z,100252.47
2023-08-12T17:42:07.923Z,100244.06
2023-08-12T17:47:09.585Z,100246.34
2023-08-12T17:52:11.624Z,100217.94
2023-08-12T17:57:13.577Z,100204.44
2023-08-12T18:02:15.505Z,100212.06
2023-08-12T18:07:17.466Z,100201.06
2023-08-12T18:12:19.369Z,100182.59
2023-08-12T18:17:21.133Z,100186.00
2023-08-12T18:22:23.092Z,100193.66
2023-08-12T18:27:24.731Z,100215.06
2023-08-12T18:32:29.365Z,100217.69
2023-08-12T18:37:31.460Z,100223.97
2023-08-12T18:42:33.411Z,100235.47
2023-08-12T18:47:35.105Z,100238.34
2023-08-12T18:52:36.833Z,100230.13
2023-08-12T18:57:38.595Z,100226.91
2023-08-12T19:02:41.148Z,100235.22
2023-08-12T19:07:42.814Z,100233.91
2023-08-12T19:12:44.437Z,100237.66
2023-08-12T19:17:46.074Z,100246.91
2023-08-12T19:22:47.772Z,100238.72
2023-08-12T19:27:49.359Z,100230.88
2023-08-12T19:32:55.141Z,100225.63
2023-08-12T19:37:59.944Z,100214.69
2023-08-12T19:43:01.696Z,100227.75
2023-08-12T19:48:03.572Z,100239.13
2023-08-12T19:53:05.942Z,100236.88
2023-08-12T19:58:07.672Z,100233.44
2023-08-12T20:03:09.469Z,100239.50
2023-08-12T20:08:11.161Z,100244.72
2023-08-12T20:13:12.859Z,100240.94
2023-08-12T20:18:14.584Z,100245.81
2023-08-12T20:23:16.275Z,100247.88
2023-08-12T20:28:17.869Z,100245.97
2023-08-12T20:33:19.547Z,100241.78
2023-08-12T20:38:21.332Z,100246.31
2023-08-12T20:43:25.331Z,100253.56
2023-08-12T20:48:26.941Z,100256.28
2023-08-12T20:53:32.460Z,100250.63
2023-08-12T20:58:34.130Z,100256.88
2023-08-12T21:03:35.889Z,100271.09
2023-08-12T21:08:37.640Z,100258.16
2023-08-12T21:13:39.257Z,100266.53
2023-08-12T21:18:40.891Z,100261.53
2023-08-12T21:23:42.597Z,100260.22
2023-08-12T21:28:44.200Z,100265.09
2023-08-12T21:33:45.856Z,100255.84
2023-08-12T21:38:47.513Z,100269.94
2023-08-12T21:43:49.183Z,100273.72
2023-08-12T21:48:50.994Z,100261.50
2023-08-12T21:53:52.635Z,100265.28
2023-08-12T21:58:54.774Z,100270.25
2023-08-12T22:03:56.468Z,100274.81
2023-08-12T22:08:58.279Z,100281.78
2023-08-12T22:13:59.893Z,100278.22
2023-08-12T22:19:01.526Z,100287.22
2023-08-12T22:24:03.252Z,100293.16
2023-08-12T22:29:04.905Z,100297.56
2023-08-12T22:34:08.563Z,100294.16
2023-08-12T22:39:10.217Z,100293.47
2023-08-12T22:44:12.278Z,100288.56
2023-08-12T22:49:14.388Z,100304.53
2023-08-12T22:54:16.174Z,100310.97
2023-08-12T22:59:19.169Z,100307.84
2023-08-12T23:04:21.001Z,100310.56
2023-08-12T23:09:22.626Z,100316.66
2023-08-12T23:14:25.021Z,100313.78
2023-08-12T23:19:26.685Z,100316.28
2023-08-12T23:24:28.390Z,100319.22
2023-08-12T23:29:30.071Z,100320.91
2023-08-12T23:34:32.595Z,100328.38
2023-08-12T23:39:34.339Z,100333.63
2023-08-12T23:44:35.970Z,100334.09
2023-08-12T23:49:37.645Z,100343.84
2023-08-12T23:54:39.272Z,100333.78
2023-08-12T23:59:41.097Z,100332.09
